Time;durP1;ratioP1;P1;durP2;ratioP2;P2;SDS_P1;SDS_P2;PMS_P1;PMS_P2;Temp;Humidity;BMP_temperature;BMP_pressure;BME280_temperature;BME280_humidity;BME280_pressure;Samples;Min_cycle;Max_cycle;Signal;HPM_P1;HPM_P2
2022/12/28 00:00:28;;;;;;;0.40;0.40;;;;;;;3.20;93.45;100077.72;5064407;28;20017;-67
2022/12/28 00:02:55;;;;;;;0.50;0.50;;;;;;;3.12;93.57;100069.00;5065051;28;20116;-67
2022/12/28 00:05:21;;;;;;;0.50;0.50;;;;;;;3.14;93.26;100072.47;5065225;28;20032;-69
2022/12/28 00:07:46;;;;;;;0.50;0.50;;;;;;;3.09;93.18;100068.16;5064711;28;20025;-67
2022/12/28 00:10:11;;;;;;;0.50;0.50;;;;;;;3.12;93.13;100064.75;5065023;28;20069;-67
2022/12/28 00:12:37;;;;;;;0.50;0.50;;;;;;;3.11;93.54;100065.59;5064477;28;20059;-67
2022/12/28 00:15:02;;;;;;;0.50;0.50;;;;;;;3.09;93.49;100055.31;5064915;28;20028;-68
2022/12/28 00:17:28;;;;;;;0.50;0.50;;;;;;;3.13;93.68;100050.25;5064725;28;20021;-67
2022/12/28 00:19:53;;;;;;;0.50;0.50;;;;;;;3.12;93.77;100054.50;5063530;28;20060;-67
2022/12/28 00:22:19;;;;;;;0.50;0.50;;;;;;;3.10;93.91;100041.66;5064831;28;20033;-69
2022/12/28 00:24:44;;;;;;;0.43;0.43;;;;;;;3.06;93.83;100034.75;5065086;28;20135;-68
2022/12/28 00:27:09;;;;;;;0.50;0.50;;;;;;;3.09;93.84;100041.63;5064607;28;20125;-68
2022/12/28 00:29:35;;;;;;;0.50;0.50;;;;;;;3.07;94.04;100046.72;5064747;28;20536;-67
2022/12/28 00:32:00;;;;;;;0.50;0.50;;;;;;;3.13;94.16;100033.13;5064811;28;20049;-67
2022/12/28 00:34:26;;;;;;;0.50;0.50;;;;;;;3.12;94.26;100039.09;5063364;28;20025;-67
2022/12/28 00:36:51;;;;;;;0.50;0.50;;;;;;;3.15;94.51;100038.28;5064642;28;20032;-67
2022/12/28 00:39:18;;;;;;;0.47;0.47;;;;;;;3.09;94.40;100028.78;5064776;28;20108;-67
2022/12/28 00:41:44;;;;;;;0.50;0.50;;;;;;;3.16;94.46;100024.63;5064652;28;20036;-68
2022/12/28 00:44:09;;;;;;;0.50;0.50;;;;;;;3.16;94.79;100029.78;5064344;28;20086;-67
2022/12/28 00:46:35;;;;;;;0.50;0.50;;;;;;;3.17;94.73;100029.78;5064495;28;20025;-67
2022/12/28 00:49:00;;;;;;;0.50;0.50;;;;;;;3.17;94.47;100018.66;5064318;28;20064;-67
2022/12/28 00:51:26;;;;;;;0.50;0.50;;;;;;;3.17;94.38;100013.53;5064413;28;20028;-67
2022/12/28 00:53:51;;;;;;;0.50;0.50;;;;;;;3.20;94.61;100011.88;5062963;28;20032;-68
2022/12/28 00:56:19;;;;;;;0.50;0.50;;;;;;;3.12;94.13;100003.19;5064496;28;20025;-68
2022/12/28 00:58:45;;;;;;;0.50;0.50;;;;;;;3.06;92.98;99997.97;5064240;28;20032;-68
2022/12/28 01:01:17;;;;;;;0.50;0.50;;;;;;;3.00;91.72;99993.63;5064336;28;20021;-68
2022/12/28 01:03:42;;;;;;;0.60;0.60;;;;;;;3.03;92.09;99987.66;5064191;28;20033;-68
2022/12/28 01:06:10;;;;;;;0.50;0.50;;;;;;;2.95;91.51;99985.84;5064388;28;20033;-68
2022/12/28 01:08:36;;;;;;;0.50;0.50;;;;;;;2.97;91.53;99988.44;5064251;28;20025;-67
2022/12/28 01:11:10;;;;;;;0.50;0.50;;;;;;;2.94;91.13;99976.41;5066252;28;20035;-67
2022/12/28 01:13:37;;;;;;;0.40;0.40;;;;;;;2.95;90.25;99982.41;5067868;28;20489;-67
2022/12/28 01:16:30;;;;;;;0.40;0.40;;;;;;;2.89;89.54;99980.59;5068005;28;20045;-67
2022/12/28 01:18:58;;;;;;;0.50;0.50;;;;;;;2.93;90.14;99972.13;5067036;28;20040;-68
2022/12/28 01:21:26;;;;;;;0.45;0.45;;;;;;;2.94;90.17;99976.41;5068051;28;20032;-67
2022/12/28 01:23:57;;;;;;;0.43;0.43;;;;;;;2.89;90.26;99972.91;5068026;28;20017;-67
2022/12/28 01:26:23;;;;;;;0.50;0.50;;;;;;;2.89;90.09;99964.38;5067953;28;20472;-66
2022/12/28 01:28:49;;;;;;;0.50;0.50;;;;;;;2.92;90.02;99957.59;5067560;28;20036;-67
2022/12/28 01:31:16;;;;;;;0.40;0.40;;;;;;;2.96;90.54;99961.06;5067823;28;20033;-67
2022/12/28 01:33:42;;;;;;;0.40;0.40;;;;;;;2.96;90.76;99955.91;5067512;28;20417;-67
2022/12/28 01:36:12;;;;;;;0.50;0.50;;;;;;;3.04;91.42;99953.47;5067426;28;20020;-67
2022/12/28 01:38:37;;;;;;;0.50;0.50;;;;;;;2.97;91.58;99950.81;5067353;28;20085;-66
2022/12/28 01:41:06;;;;;;;0.50;0.50;;;;;;;2.97;91.06;99945.69;5067538;28;20039;-67
2022/12/28 01:43:42;;;;;;;0.50;0.50;;;;;;;2.91;91.15;99945.59;5067526;28;20092;-66
2022/12/28 01:46:15;;;;;;;0.50;0.50;;;;;;;2.88;91.09;99942.97;5067477;28;20036;-66
2022/12/28 01:48:49;;;;;;;0.50;0.50;;;;;;;2.83;91.21;99939.47;5067027;28;20074;-67
2022/12/28 01:51:16;;;;;;;0.50;0.50;;;;;;;2.75;90.97;99935.94;5067626;28;20346;-67
2022/12/28 01:53:41;;;;;;;0.47;0.47;;;;;;;2.72;91.43;99934.19;5065734;28;20075;-66
2022/12/28 01:56:07;;;;;;;0.50;0.50;;;;;;;2.59;91.62;99921.19;5067287;28;20017;-66
2022/12/28 01:58:33;;;;;;;0.50;0.50;;;;;;;2.61;91.97;99921.19;5066928;28;20461;-66
2022/12/28 02:01:00;;;;;;;0.43;0.43;;;;;;;2.53;92.43;99927.88;5067225;28;20021;-66
2022/12/28 02:03:27;;;;;;;0.50;0.50;;;;;;;2.44;92.06;99916.66;5067112;28;20039;-64
2022/12/28 02:05:57;;;;;;;6.85;3.15;;;;;;;2.45;92.14;99918.38;5065596;28;20028;-65
2022/12/28 02:08:26;;;;;;;0.50;0.50;;;;;;;2.40;92.22;99909.75;5067017;28;20024;-64
2022/12/28 02:10:52;;;;;;;0.50;0.50;;;;;;;2.27;92.59;99905.28;5067029;28;20029;-66
2022/12/28 02:13:21;;;;;;;0.47;0.47;;;;;;;2.25;92.67;99892.44;5066815;28;20028;-63
2022/12/28 02:15:47;;;;;;;0.50;0.50;;;;;;;2.20;92.56;99879.53;5066993;28;20024;-63
2022/12/28 02:18:14;;;;;;;0.50;0.50;;;;;;;2.10;92.25;99881.09;5066903;28;20023;-65
2022/12/28 02:20:42;;;;;;;0.50;0.50;;;;;;;2.02;91.88;99874.06;5067006;28;20024;-64
2022/12/28 02:23:58;;;;;;;0.50;0.50;;;;;;;1.90;92.01;99874.72;5066031;28;20028;-63
2022/12/28 02:26:51;;;;;;;0.75;0.73;;;;;;;1.77;92.07;99855.72;5057086;28;20033;-63
2022/12/28 02:29:22;;;;;;;0.50;0.50;;;;;;;1.68;91.74;99854.72;5066649;28;20041;-64
2022/12/28 02:32:03;;;;;;;0.60;0.60;;;;;;;1.58;91.71;99848.53;5066767;28;20457;-64
2022/12/28 02:34:46;;;;;;;0.40;0.40;;;;;;;1.49;91.63;99838.13;5066823;28;20476;-64
2022/12/28 02:37:23;;;;;;;0.40;0.40;;;;;;;1.42;91.79;99834.59;5066781;28;20025;-62
2022/12/28 02:40:02;;;;;;;0.50;0.50;;;;;;;1.30;92.30;99839.47;5065281;28;20025;-63
2022/12/28 02:42:29;;;;;;;0.50;0.50;;;;;;;1.21;91.89;99837.59;5066483;28;20020;-64
2022/12/28 02:50:42;;;;;;;0.50;0.50;;;;;;;0.95;92.82;99809.78;5066536;28;20052;-64
2022/12/28 02:53:20;;;;;;;0.50;0.50;;;;;;;0.91;93.16;99813.94;5066150;28;20020;-65
2022/12/28 02:56:17;;;;;;;0.50;0.50;;;;;;;0.90;93.34;99804.56;5066277;28;20048;-65
2022/12/28 02:59:14;;;;;;;0.50;0.50;;;;;;;0.79;93.98;99798.34;5065928;28;20131;-65
2022/12/28 03:01:51;;;;;;;0.50;0.50;;;;;;;0.81;93.71;99784.81;5065991;28;20020;-66
2022/12/28 03:04:35;;;;;;;0.40;0.40;;;;;;;0.76;93.83;99788.06;5066017;28;20028;-66
2022/12/28 03:10:32;;;;;;;0.50;0.50;;;;;;;0.70;94.50;99769.22;5065954;28;20039;-66
2022/12/28 03:13:04;;;;;;;0.57;0.57;;;;;;;0.67;94.37;99766.59;5062602;28;20041;-69
2022/12/28 03:15:35;;;;;;;1.55;1.50;;;;;;;0.57;94.48;99750.22;5065754;28;20028;-68
2022/12/28 03:32:07;;;;;;;0.50;0.50;;;;;;;0.42;95.02;99714.09;5065637;28;20055;-67
2022/12/28 03:34:33;;;;;;;0.50;0.50;;;;;;;0.37;95.40;99711.44;5065254;28;20090;-67
2022/12/28 03:37:27;;;;;;;0.50;0.50;;;;;;;0.38;95.39;99702.97;5065244;28;20439;-67
2022/12/28 03:40:05;;;;;;;0.50;0.50;;;;;;;0.41;95.00;99684.31;5065291;28;20017;-67
2022/12/28 03:46:09;;;;;;;0.47;0.47;;;;;;;0.28;95.65;99666.16;5065517;28;20043;-67
2022/12/28 03:48:38;;;;;;;0.52;0.52;;;;;;;0.32;95.40;99672.22;5065034;28;20049;-67
2022/12/28 03:51:03;;;;;;;0.50;0.50;;;;;;;0.33;95.70;99661.16;5064071;28;20049;-66
2022/12/28 03:53:47;;;;;;;0.50;0.50;;;;;;;0.33;95.68;99653.50;5065196;28;20032;-66
2022/12/28 03:56:18;;;;;;;0.50;0.50;;;;;;;0.53;95.36;99656.47;5065174;28;20036;-66
2022/12/28 03:58:44;;;;;;;0.60;0.60;;;;;;;0.35;94.56;99636.53;5064944;28;20033;-67
2022/12/28 04:01:09;;;;;;;0.60;0.60;;;;;;;0.31;95.82;99644.94;5065017;28;20307;-66
2022/12/28 04:03:35;;;;;;;0.50;0.50;;;;;;;0.32;95.63;99639.03;5065001;28;20020;-66
2022/12/28 04:06:00;;;;;;;0.50;0.50;;;;;;;0.31;95.58;99644.94;5064976;28;20033;-67
2022/12/28 04:08:26;;;;;;;0.40;0.40;;;;;;;0.18;95.99;99621.69;5064790;28;20135;-66
2022/12/28 04:10:52;;;;;;;0.40;0.40;;;;;;;0.16;96.51;99625.91;5064975;28;20020;-66
2022/12/28 04:13:17;;;;;;;0.60;0.60;;;;;;;0.27;96.06;99618.50;5064492;28;20052;-67
2022/12/28 04:15:43;;;;;;;0.50;0.50;;;;;;;0.19;96.37;99607.25;5064906;28;20481;-66
2022/12/28 04:18:08;;;;;;;0.50;0.50;;;;;;;0.26;96.08;99603.97;5064656;28;20511;-65
2022/12/28 04:20:34;;;;;;;1.67;1.63;;;;;;;0.22;95.53;99597.94;5064682;28;20279;-66
2022/12/28 04:22:59;;;;;;;0.50;0.50;;;;;;;0.15;96.26;99595.22;5064616;28;20036;-66
2022/12/28 04:25:25;;;;;;;0.50;0.50;;;;;;;0.17;96.03;99589.34;5064815;28;20017;-67
2022/12/28 04:27:50;;;;;;;0.50;0.50;;;;;;;0.11;96.90;99579.84;5064765;28;20021;-66
2022/12/28 04:30:16;;;;;;;0.50;0.50;;;;;;;0.06;96.69;99573.81;5064728;28;20035;-67
2022/12/28 04:32:41;;;;;;;0.60;0.60;;;;;;;0.18;96.53;99574.88;5063579;28;20032;-65
2022/12/28 04:35:07;;;;;;;0.55;0.55;;;;;;;0.17;96.22;99573.16;5064586;28;20092;-65
2022/12/28 04:37:36;;;;;;;0.60;0.60;;;;;;;-0.01;96.77;99570.25;5064531;28;20044;-64
2022/12/28 04:40:01;;;;;;;0.50;0.50;;;;;;;0.14;96.18;99561.22;5064622;28;20024;-65
2022/12/28 04:42:27;;;;;;;0.60;0.60;;;;;;;0.02;96.05;99566.06;5063121;28;20036;-64
2022/12/28 04:44:52;;;;;;;0.50;0.50;;;;;;;0.03;96.36;99552.47;5064386;28;20017;-65
2022/12/28 04:47:18;;;;;;;0.52;0.52;;;;;;;-0.07;96.79;99549.72;5068549;28;20028;-65
2022/12/28 04:49:43;;;;;;;0.50;0.50;;;;;;;-0.04;96.63;99547.25;5068316;28;20133;-65
2022/12/28 04:52:09;;;;;;;0.50;0.50;;;;;;;-0.15;97.25;99534.25;5068560;28;20481;-65
2022/12/28 04:54:34;;;;;;;0.50;0.50;;;;;;;-0.09;97.09;99525.84;5068233;28;20067;-65
2022/12/28 04:56:59;;;;;;;0.50;0.50;;;;;;;-0.07;97.07;99520.78;5066920;28;20021;-65
2022/12/28 04:59:25;;;;;;;0.50;0.50;;;;;;;-0.14;97.47;99515.56;5068224;28;20021;-64
2022/12/28 05:01:50;;;;;;;0.50;0.50;;;;;;;-0.22;97.72;99501.78;5068530;28;20313;-64
2022/12/28 05:04:16;;;;;;;0.60;0.60;;;;;;;-0.21;98.21;99510.28;5068201;28;20024;-64
2022/12/28 05:06:41;;;;;;;0.50;0.50;;;;;;;-0.17;98.41;99504.41;5068283;28;20344;-64
2022/12/28 05:09:06;;;;;;;0.60;0.60;;;;;;;-0.18;98.48;99497.59;5068165;28;20029;-65
2022/12/28 05:11:32;;;;;;;0.50;0.50;;;;;;;0.03;97.80;99486.09;5068227;28;20046;-64
2022/12/28 05:13:57;;;;;;;0.60;0.60;;;;;;;-0.10;97.86;99496.06;5067825;28;20021;-65
2022/12/28 05:16:25;;;;;;;0.50;0.50;;;;;;;-0.12;98.02;99469.66;5066644;28;20029;-65
2022/12/28 05:18:50;;;;;;;3.60;3.40;;;;;;;-0.14;98.06;99473.84;5067990;28;20028;-65
2022/12/28 05:21:19;;;;;;;0.50;0.50;;;;;;;-0.11;98.05;99465.44;5068086;28;20036;-65
2022/12/28 05:23:45;;;;;;;0.47;0.47;;;;;;;-0.13;98.06;99463.69;5067998;28;20039;-65
2022/12/28 05:26:13;;;;;;;0.50;0.50;;;;;;;-0.18;98.49;99460.22;5068092;28;20100;-66
2022/12/28 05:28:39;;;;;;;0.50;0.50;;;;;;;-0.09;98.22;99446.75;5067636;28;20021;-66
2022/12/28 05:31:09;;;;;;;0.52;0.52;;;;;;;-0.16;98.44;99448.31;5067704;28;20151;-65
2022/12/28 05:33:37;;;;;;;0.50;0.50;;;;;;;-0.11;98.36;99439.91;5067545;28;20092;-64
2022/12/28 05:36:07;;;;;;;0.50;0.50;;;;;;;-0.14;98.29;99436.47;5067693;28;20032;-65
2022/12/28 05:38:33;;;;;;;0.60;0.60;;;;;;;0.14;97.02;99427.59;5066102;28;20058;-64
2022/12/28 05:41:11;;;;;;;0.50;0.50;;;;;;;-0.09;97.24;99422.91;5067625;28;20072;-65
2022/12/28 05:43:36;;;;;;;0.50;0.50;;;;;;;0.20;96.32;99412.41;5067243;28;20532;-64
2022/12/28 05:46:04;;;;;;;0.50;0.50;;;;;;;0.08;96.52;99413.06;5066401;28;20028;-63
2022/12/28 05:48:33;;;;;;;0.50;0.50;;;;;;;-0.02;96.72;99406.91;5067029;28;20045;-65
2022/12/28 05:51:06;;;;;;;0.50;0.50;;;;;;;0.17;96.61;99402.13;5065961;28;20100;-63
2022/12/28 05:53:33;;;;;;;0.40;0.40;;;;;;;0.09;96.05;99390.09;5067297;28;20021;-63
2022/12/28 05:56:04;;;;;;;0.50;0.50;;;;;;;0.06;96.54;99381.53;5067440;28;20073;-66
2022/12/28 05:58:29;;;;;;;0.50;0.50;;;;;;;0.15;95.86;99379.13;5065855;28;20025;-62
2022/12/28 06:01:04;;;;;;;0.60;0.60;;;;;;;-0.08;96.42;99364.25;5067359;28;20351;-67
2022/12/28 06:03:30;;;;;;;0.50;0.50;;;;;;;-0.02;96.63;99369.47;5067352;28;20055;-64
2022/12/28 06:05:56;;;;;;;0.50;0.50;;;;;;;-0.09;97.24;99380.41;5067324;28;20017;-64
2022/12/28 06:08:21;;;;;;;0.50;0.50;;;;;;;-0.01;97.28;99367.78;5065980;28;20093;-64
2022/12/28 06:10:47;;;;;;;0.47;0.47;;;;;;;0.17;96.97;99363.84;5067212;28;20029;-64
2022/12/28 06:13:12;;;;;;;0.50;0.50;;;;;;;0.21;95.58;99363.91;5066702;28;20028;-62
2022/12/28 06:15:37;;;;;;;0.50;0.50;;;;;;;0.04;96.66;99365.31;5067126;28;20060;-63
2022/12/28 06:18:03;;;;;;;0.50;0.50;;;;;;;0.10;96.78;99355.22;5067032;28;20027;-63
2022/12/28 06:20:28;;;;;;;0.50;0.50;;;;;;;0.14;96.24;99354.44;5066996;28;20111;-62
2022/12/28 06:22:54;;;;;;;0.50;0.50;;;;;;;-0.07;97.35;99335.38;5066934;28;20025;-63
2022/12/28 06:25:19;;;;;;;0.40;0.40;;;;;;;0.27;95.59;99331.69;5066933;28;20480;-62
2022/12/28 06:27:44;;;;;;;0.50;0.50;;;;;;;0.32;94.64;99330.91;5066775;28;20025;-62
2022/12/28 06:30:11;;;;;;;0.50;0.50;;;;;;;0.08;95.45;99326.28;5066548;28;20424;-63
2022/12/28 06:32:36;;;;;;;0.50;0.50;;;;;;;0.05;96.26;99332.16;5066774;28;20033;-63
2022/12/28 06:35:01;;;;;;;0.50;0.50;;;;;;;0.08;96.42;99328.81;5066588;28;20071;-64
2022/12/28 06:37:27;;;;;;;0.50;0.50;;;;;;;0.05;96.67;99318.56;5066630;28;20048;-63
2022/12/28 06:39:52;;;;;;;0.50;0.50;;;;;;;0.03;96.94;99308.34;5066601;28;20025;-63
2022/12/28 06:42:18;;;;;;;0.50;0.50;;;;;;;0.12;96.02;99307.63;5066516;28;20017;-63
2022/12/28 06:44:43;;;;;;;0.50;0.50;;;;;;;0.17;95.63;99300.91;5066196;28;20438;-64
2022/12/28 06:47:08;;;;;;;0.50;0.50;;;;;;;-0.05;96.63;99299.69;5066354;28;20023;-65
2022/12/28 06:49:34;;;;;;;0.50;0.50;;;;;;;-0.23;97.08;99282.34;5066107;28;20041;-66
2022/12/28 06:51:59;;;;;;;0.43;0.43;;;;;;;-0.09;97.74;99296.22;5066309;28;20032;-64
2022/12/28 06:54:24;;;;;;;0.50;0.50;;;;;;;-0.06;97.32;99290.28;5065966;28;20124;-64
2022/12/28 06:56:50;;;;;;;0.50;0.50;;;;;;;-0.04;97.13;99281.84;5065749;28;20024;-64
2022/12/28 06:59:15;;;;;;;0.60;0.60;;;;;;;-0.11;97.59;99290.22;5065615;28;20366;-64
2022/12/28 07:01:43;;;;;;;0.50;0.50;;;;;;;-0.14;97.83;99250.22;5065582;28;20025;-65
2022/12/28 07:04:09;;;;;;;0.50;0.50;;;;;;;0.06;97.10;99276.88;5065903;28;20018;-65
2022/12/28 07:06:38;;;;;;;0.50;0.50;;;;;;;-0.09;97.26;99270.69;5066212;28;20032;-64
2022/12/28 07:09:07;;;;;;;0.50;0.50;;;;;;;-0.07;97.67;99270.72;5065530;28;20051;-64
2022/12/28 07:11:32;;;;;;;0.50;0.50;;;;;;;-0.10;98.00;99273.22;5066016;28;20021;-64
2022/12/28 07:13:58;;;;;;;0.60;0.60;;;;;;;-0.13;98.13;99261.28;5065288;28;20063;-64
2022/12/28 07:16:25;;;;;;;0.50;0.50;;;;;;;-0.02;97.97;99264.84;5066125;28;20021;-64
2022/12/28 07:18:51;;;;;;;0.50;0.50;;;;;;;-0.19;98.30;99254.38;5065852;28;20408;-65
2022/12/28 07:21:25;;;;;;;0.50;0.50;;;;;;;-0.16;98.56;99271.44;5064516;28;20044;-64
2022/12/28 07:23:53;;;;;;;0.50;0.50;;;;;;;-0.20;98.32;99246.69;5065705;28;20036;-64
2022/12/28 07:26:27;;;;;;;0.40;0.40;;;;;;;-0.16;98.35;99246.75;5065860;28;20020;-64
2022/12/28 07:28:54;;;;;;;0.40;0.40;;;;;;;-0.08;98.25;99252.00;5064044;28;20039;-64
2022/12/28 07:31:23;;;;;;;0.50;0.50;;;;;;;-0.17;98.46;99246.75;5065706;28;20021;-64
2022/12/28 07:33:49;;;;;;;0.50;0.50;;;;;;;-0.26;98.64;99219.41;5065649;28;20036;-64
2022/12/28 07:36:17;;;;;;;0.50;0.50;;;;;;;-0.02;97.96;99233.38;5064394;28;20036;-65
2022/12/28 07:38:43;;;;;;;0.50;0.50;;;;;;;0.02;97.78;99224.09;5065340;28;20028;-64
2022/12/28 07:41:11;;;;;;;0.50;0.50;;;;;;;-0.02;98.03;99218.06;5064152;28;20032;-64
2022/12/28 07:43:37;;;;;;;0.50;0.50;;;;;;;0.02;98.13;99211.34;5065352;28;20033;-64
2022/12/28 07:46:08;;;;;;;0.40;0.40;;;;;;;-0.23;98.42;99209.25;5064083;28;20074;-64
2022/12/28 07:48:35;;;;;;;0.55;0.55;;;;;;;-0.12;98.83;99204.31;5064057;28;20429;-65
2022/12/28 07:51:28;;;;;;;0.50;0.50;;;;;;;0.04;97.84;99197.75;5065567;28;20029;-64
2022/12/28 07:53:55;;;;;;;0.50;0.50;;;;;;;0.04;98.13;99200.31;5062990;28;20040;-65
2022/12/28 07:56:22;;;;;;;4.00;3.63;;;;;;;0.14;97.38;99192.78;5065513;28;20116;-66
2022/12/28 07:58:50;;;;;;;0.50;0.50;;;;;;;0.06;97.39;99198.66;5065133;28;20029;-64
2022/12/28 08:01:17;;;;;;;0.50;0.50;;;;;;;0.13;98.15;99201.28;5065295;28;20062;-64
2022/12/28 08:03:42;;;;;;;0.50;0.50;;;;;;;0.06;97.57;99185.00;5063993;28;20025;-64
2022/12/28 08:06:10;;;;;;;0.50;0.50;;;;;;;0.32;97.01;99184.53;5065119;28;20071;-64
2022/12/28 08:08:36;;;;;;;0.50;0.50;;;;;;;0.19;96.96;99174.13;5063649;28;20031;-66
2022/12/28 08:11:08;;;;;;;0.60;0.60;;;;;;;0.33;96.56;99176.03;5063723;28;20047;-64
2022/12/28 08:13:36;;;;;;;0.52;0.52;;;;;;;0.41;97.05;99169.34;5065001;28;20089;-64
2022/12/28 08:16:01;;;;;;;0.45;0.45;;;;;;;0.43;95.45;99165.06;5063754;28;20128;-66
2022/12/28 08:18:27;;;;;;;0.52;0.52;;;;;;;0.42;95.48;99168.47;5065086;28;20029;-66
2022/12/28 08:20:53;;;;;;;0.50;0.50;;;;;;;0.34;95.18;99140.31;5064291;28;20420;-66
2022/12/28 08:23:18;;;;;;;0.50;0.50;;;;;;;0.28;96.42;99155.53;5064794;28;20025;-66
2022/12/28 08:25:44;;;;;;;0.50;0.50;;;;;;;0.27;95.75;99160.63;5065015;28;20036;-66
2022/12/28 08:28:09;;;;;;;0.50;0.50;;;;;;;0.29;96.49;99156.41;5064379;28;20048;-65
2022/12/28 08:30:34;;;;;;;0.52;0.52;;;;;;;0.37;96.02;99154.78;5064107;28;20046;-65
2022/12/28 08:33:00;;;;;;;0.50;0.50;;;;;;;0.20;96.43;99146.91;5064554;28;20176;-66
2022/12/28 08:35:25;;;;;;;0.40;0.40;;;;;;;0.36;96.32;99140.31;5064434;28;20033;-65
2022/12/28 08:37:54;;;;;;;0.50;0.50;;;;;;;0.23;96.69;99149.50;5064814;28;20114;-64
2022/12/28 08:40:21;;;;;;;0.57;0.57;;;;;;;0.35;96.43;99131.78;5064706;28;20032;-64
2022/12/28 08:42:46;;;;;;;0.50;0.50;;;;;;;0.34;96.05;99134.31;5064785;28;20503;-65
2022/12/28 08:45:12;;;;;;;0.50;0.50;;;;;;;0.44;95.48;99131.06;5064811;28;20021;-65
2022/12/28 08:47:37;;;;;;;0.50;0.50;;;;;;;0.47;95.32;99126.00;5064725;28;20036;-65
2022/12/28 08:50:03;;;;;;;0.50;0.50;;;;;;;0.37;95.66;99108.81;5064561;28;20041;-65
2022/12/28 08:52:28;;;;;;;0.40;0.40;;;;;;;0.45;95.32;99127.66;5064614;28;20097;-64
2022/12/28 08:54:54;;;;;;;0.60;0.60;;;;;;;0.32;96.17;99124.09;5064542;28;20055;-64
2022/12/28 08:57:19;;;;;;;0.50;0.50;;;;;;;0.59;95.39;99122.72;5064722;28;20025;-65
2022/12/28 08:59:44;;;;;;;0.50;0.50;;;;;;;0.52;94.50;99095.41;5063087;28;20092;-64
2022/12/28 09:02:13;;;;;;;0.50;0.50;;;;;;;0.39;96.18;99122.47;5064679;28;20021;-64
2022/12/28 09:04:39;;;;;;;0.50;0.50;;;;;;;0.45;95.31;99112.34;5064503;28;20013;-63
2022/12/28 09:07:05;;;;;;;0.50;0.50;;;;;;;0.49;95.66;99109.00;5064470;28;20469;-64
2022/12/28 09:09:30;;;;;;;0.50;0.50;;;;;;;0.61;95.40;99118.47;5064496;28;20031;-63
2022/12/28 09:11:55;;;;;;;0.50;0.50;;;;;;;0.61;95.09;99107.41;5063255;28;20041;-63
2022/12/28 09:14:21;;;;;;;0.50;0.50;;;;;;;0.43;96.57;99103.78;5064275;28;20051;-63
2022/12/28 09:16:46;;;;;;;0.50;0.50;;;;;;;0.61;95.43;99108.28;5063120;28;20043;-63
2022/12/28 09:19:14;;;;;;;0.50;0.50;;;;;;;0.58;95.62;99094.59;5062889;28;20051;-63
2022/12/28 09:21:40;;;;;;;0.50;0.50;;;;;;;0.70;95.78;99083.66;5064460;28;20035;-63
2022/12/28 09:24:05;;;;;;;0.60;0.60;;;;;;;0.57;96.05;99080.13;5064332;28;20096;-63
2022/12/28 09:26:34;;;;;;;0.50;0.50;;;;;;;0.60;95.81;99091.25;5064475;28;20331;-62
2022/12/28 09:29:03;;;;;;;0.50;0.50;;;;;;;0.64;96.17;99076.78;5063970;28;20020;-61
2022/12/28 09:31:30;;;;;;;0.50;0.50;;;;;;;0.85;95.03;99077.84;5065324;28;20024;-62
2022/12/28 09:34:02;;;;;;;1.80;1.70;;;;;;;0.84;94.74;99058.25;5067860;28;20021;-64
2022/12/28 09:36:37;;;;;;;6.20;5.78;;;;;;;0.69;95.47;99053.84;5100408;28;20025;-64
2022/12/28 09:39:06;;;;;;;0.50;0.50;;;;;;;0.72;95.83;99049.63;5067634;28;20025;-63
2022/12/28 09:41:39;;;;;;;0.40;0.40;;;;;;;0.89;94.94;99055.75;5067750;28;20051;-62
2022/12/28 09:44:10;;;;;;;0.50;0.50;;;;;;;0.62;95.99;99047.84;5067571;28;20021;-62
2022/12/28 09:46:39;;;;;;;0.60;0.60;;;;;;;0.77;95.75;99038.63;5067695;28;20107;-62
2022/12/28 09:49:15;;;;;;;0.50;0.50;;;;;;;0.83;95.94;99039.50;5067415;28;20100;-63
2022/12/28 09:52:09;;;;;;;0.50;0.50;;;;;;;0.45;96.87;99035.72;5067623;28;20027;-62
2022/12/28 09:54:35;;;;;;;0.50;0.50;;;;;;;0.26;97.96;99044.88;5063270;28;20037;-63
2022/12/28 09:57:00;;;;;;;0.50;0.50;;;;;;;0.40;98.78;99019.50;5067525;28;20108;-63
2022/12/28 09:59:33;;;;;;;0.50;0.50;;;;;;;0.72;97.40;99024.06;5067271;28;20056;-60
2022/12/28 10:02:03;;;;;;;0.50;0.50;;;;;;;0.57;97.52;99029.91;5067534;28;20021;-63
2022/12/28 10:04:29;;;;;;;0.50;0.50;;;;;;;0.39;98.41;99014.38;5065960;28;20446;-62
2022/12/28 10:06:56;;;;;;;0.50;0.50;;;;;;;0.31;98.90;99040.69;5067261;28;20044;-63
2022/12/28 10:09:28;;;;;;;0.50;0.50;;;;;;;0.28;99.36;99020.22;5066063;28;20031;-62
2022/12/28 10:11:54;;;;;;;0.50;0.50;;;;;;;0.30;99.61;99013.47;5067212;28;20118;-63
2022/12/28 10:14:23;;;;;;;0.50;0.50;;;;;;;0.60;99.30;99004.41;5067016;28;20021;-63
2022/12/28 10:16:48;;;;;;;0.50;0.50;;;;;;;0.58;99.37;99006.06;5067143;28;20020;-62
2022/12/28 10:19:20;;;;;;;0.47;0.47;;;;;;;0.54;99.47;99006.03;5066891;28;20049;-62
2022/12/28 10:21:47;;;;;;;0.60;0.60;;;;;;;0.52;99.48;98997.47;5065605;28;20017;-63
2022/12/28 10:24:13;;;;;;;0.50;0.50;;;;;;;0.43;99.79;99000.81;5066899;28;20040;-63
2022/12/28 10:26:41;;;;;;;0.50;0.50;;;;;;;0.63;100.00;98992.47;5066914;28;20032;-62
2022/12/28 10:29:15;;;;;;;0.50;0.50;;;;;;;0.77;98.83;98980.69;5066599;28;20060;-62
2022/12/28 10:31:42;;;;;;;0.50;0.50;;;;;;;1.01;97.22;98984.28;5066728;28;20024;-63
2022/12/28 10:34:21;;;;;;;0.50;0.50;;;;;;;1.14;95.61;98963.91;5066537;28;20029;-63
2022/12/28 10:36:49;;;;;;;0.47;0.47;;;;;;;1.03;96.54;98972.38;5066852;28;20024;-63
2022/12/28 10:39:19;;;;;;;0.50;0.50;;;;;;;0.77;97.76;98982.41;5066450;28;20025;-63
2022/12/28 10:41:45;;;;;;;0.50;0.50;;;;;;;0.95;98.26;98963.78;5066560;28;20025;-63
2022/12/28 10:44:18;;;;;;;0.40;0.40;;;;;;;1.01;97.52;98960.44;5065761;28;20051;-62
2022/12/28 10:46:58;;;;;;;0.52;0.52;;;;;;;0.98;97.70;98949.34;5066363;28;20089;-62
2022/12/28 10:49:26;;;;;;;0.50;0.50;;;;;;;1.10;97.72;98957.94;5066222;28;20059;-63
2022/12/28 10:52:02;;;;;;;0.50;0.50;;;;;;;1.05;97.86;98946.81;5066309;28;20025;-62
2022/12/28 10:54:32;;;;;;;0.50;0.50;;;;;;;0.85;98.13;98950.94;5066168;28;20029;-63
2022/12/28 10:56:58;;;;;;;0.50;0.50;;;;;;;0.67;99.12;98949.09;5064969;28;20039;-63
2022/12/28 10:59:27;;;;;;;0.50;0.50;;;;;;;0.68;99.75;98944.84;5065996;28;20060;-63
2022/12/28 11:01:55;;;;;;;0.50;0.50;;;;;;;0.69;100.00;98952.53;5066281;28;20084;-63
2022/12/28 11:04:25;;;;;;;0.40;0.40;;;;;;;0.72;100.00;98946.56;5066160;28;20053;-63
2022/12/28 11:06:55;;;;;;;0.43;0.43;;;;;;;1.15;99.03;98937.53;5066274;28;20025;-63
2022/12/28 11:09:23;;;;;;;0.60;0.60;;;;;;;1.27;97.50;98944.41;5064846;28;20025;-63
2022/12/28 11:11:51;;;;;;;0.47;0.47;;;;;;;1.14;98.46;98935.78;5065052;28;20040;-65
2022/12/28 11:14:29;;;;;;;0.50;0.50;;;;;;;0.98;99.15;98939.13;5064885;28;20051;-64
2022/12/28 11:16:55;;;;;;;0.50;0.50;;;;;;;0.85;99.78;98935.63;5065131;28;20534;-63
2022/12/28 11:19:22;;;;;;;0.50;0.50;;;;;;;0.84;100.00;98933.06;5064647;28;20032;-63
2022/12/28 11:21:48;;;;;;;0.47;0.47;;;;;;;0.86;100.00;98918.59;5065016;28;20029;-63
2022/12/28 11:24:15;;;;;;;0.50;0.50;;;;;;;0.89;100.00;98920.31;5064862;28;20028;-63
2022/12/28 11:26:44;;;;;;;0.50;0.50;;;;;;;0.90;100.00;98909.22;5064743;28;20029;-63
2022/12/28 11:29:12;;;;;;;0.50;0.50;;;;;;;0.94;100.00;98909.25;5064418;28;20044;-64
2022/12/28 11:31:46;;;;;;;0.50;0.50;;;;;;;0.97;100.00;98916.97;5064712;28;20027;-64
2022/12/28 11:34:17;;;;;;;0.50;0.50;;;;;;;1.01;100.00;98906.78;5063298;28;20032;-63
2022/12/28 11:36:43;;;;;;;0.60;0.60;;;;;;;1.04;100.00;98906.78;5063368;28;20017;-66
2022/12/28 11:39:24;;;;;;;0.50;0.50;;;;;;;1.08;100.00;98898.28;5064232;28;20033;-65
2022/12/28 11:41:51;;;;;;;0.50;0.50;;;;;;;1.06;100.00;98894.84;5064462;28;20032;-65
2022/12/28 11:44:28;;;;;;;0.50;0.50;;;;;;;1.14;100.00;98895.75;5064392;28;20017;-65
2022/12/28 11:46:57;;;;;;;0.50;0.50;;;;;;;1.16;100.00;98896.63;5064576;28;20021;-65
2022/12/28 11:49:30;;;;;;;0.43;0.43;;;;;;;1.18;100.00;98887.25;5063926;28;20104;-65
2022/12/28 11:52:17;;;;;;;0.40;0.40;;;;;;;1.22;100.00;98885.56;5064574;28;20089;-65
2022/12/28 11:55:20;;;;;;;0.50;0.50;;;;;;;1.24;100.00;98883.88;5061276;28;20034;-66
2022/12/28 11:57:45;;;;;;;0.40;0.40;;;;;;;1.28;100.00;98882.22;5063650;28;20045;-65
2022/12/28 12:00:17;;;;;;;0.50;0.50;;;;;;;1.28;100.00;98888.16;5063982;28;20055;-66
2022/12/28 12:02:48;;;;;;;0.50;0.50;;;;;;;1.21;100.00;98864.28;5064189;28;20017;-71
2022/12/28 12:05:36;;;;;;;0.60;0.60;;;;;;;1.32;100.00;98876.25;5064246;28;20033;-64
2022/12/28 12:08:10;;;;;;;0.50;0.50;;;;;;;1.35;100.00;98869.44;5064082;28;20047;-65
2022/12/28 12:10:37;;;;;;;0.50;0.50;;;;;;;1.39;100.00;98866.91;5064195;28;20199;-65
2022/12/28 12:13:25;;;;;;;0.50;0.50;;;;;;;1.41;100.00;98875.41;5063074;28;20492;-67